sensor_id;sensor_type;location;lat;lon;timestamp;P1;durP1;ratioP1;P2;durP2;ratioP2
53040;SDS011;39326;42.650;23.248;2023-11-21T00:02:13;1.43;;;1.17;;
53040;SDS011;39326;42.650;23.248;2023-11-21T00:04:39;2.67;;;1.37;;
53040;SDS011;39326;42.650;23.248;2023-11-21T00:07:04;3.13;;;1.00;;
53040;SDS011;39326;42.650;23.248;2023-11-21T00:09:31;1.67;;;1.27;;
53040;SDS011;39326;42.650;23.248;2023-11-21T00:11:57;1.90;;;1.00;;
53040;SDS011;39326;42.650;23.248;2023-11-21T00:14:24;4.83;;;1.23;;
53040;SDS011;39326;42.650;23.248;2023-11-21T00:16:50;1.53;;;0.90;;
53040;SDS011;39326;42.650;23.248;2023-11-21T00:19:16;1.33;;;1.10;;
53040;SDS011;39326;42.650;23.248;2023-11-21T00:21:42;2.47;;;1.13;;
53040;SDS011;39326;42.650;23.248;2023-11-21T00:24:10;1.10;;;1.00;;
53040;SDS011;39326;42.650;23.248;2023-11-21T00:26:39;2.23;;;1.13;;
53040;SDS011;39326;42.650;23.248;2023-11-21T00:29:05;1.43;;;1.30;;
53040;SDS011;39326;42.650;23.248;2023-11-21T00:31:34;2.57;;;1.87;;
53040;SDS011;39326;42.650;23.248;2023-11-21T00:34:02;2.43;;;1.00;;
53040;SDS011;39326;42.650;23.248;2023-11-21T00:36:31;1.30;;;1.10;;
53040;SDS011;39326;42.650;23.248;2023-11-21T00:38:57;1.57;;;1.33;;
53040;SDS011;39326;42.650;23.248;2023-11-21T00:41:24;1.77;;;1.50;;
53040;SDS011;39326;42.650;23.248;2023-11-21T00:43:53;1.30;;;1.20;;
53040;SDS011;39326;42.650;23.248;2023-11-21T00:46:20;2.77;;;1.20;;
53040;SDS011;39326;42.650;23.248;2023-11-21T00:48:46;2.20;;;1.13;;
53040;SDS011;39326;42.650;23.248;2023-11-21T00:51:12;1.30;;;1.10;;
53040;SDS011;39326;42.650;23.248;2023-11-21T00:53:37;2.07;;;1.10;;
53040;SDS011;39326;42.650;23.248;2023-11-21T00:56:04;2.53;;;1.10;;
53040;SDS011;39326;42.650;23.248;2023-11-21T00:58:30;2.20;;;0.97;;
53040;SDS011;39326;42.650;23.248;2023-11-21T01:00:56;2.57;;;1.20;;
53040;SDS011;39326;42.650;23.248;2023-11-21T01:03:22;2.10;;;1.00;;
53040;SDS011;39326;42.650;23.248;2023-11-21T01:05:48;1.40;;;1.00;;
53040;SDS011;39326;42.650;23.248;2023-11-21T01:08:15;1.10;;;0.83;;
53040;SDS011;39326;42.650;23.248;2023-11-21T01:10:41;2.07;;;1.37;;
53040;SDS011;39326;42.650;23.248;2023-11-21T01:13:07;1.27;;;1.07;;
53040;SDS011;39326;42.650;23.248;2023-11-21T01:15:35;1.50;;;1.10;;
53040;SDS011;39326;42.650;23.248;2023-11-21T01:18:00;1.77;;;1.27;;
53040;SDS011;39326;42.650;23.248;2023-11-21T01:20:26;1.37;;;1.13;;
53040;SDS011;39326;42.650;23.248;2023-11-21T01:22:52;1.40;;;1.30;;
53040;SDS011;39326;42.650;23.248;2023-11-21T01:25:19;1.33;;;1.23;;
53040;SDS011;39326;42.650;23.248;2023-11-21T01:27:46;1.87;;;1.37;;
53040;SDS011;39326;42.650;23.248;2023-11-21T01:30:11;1.30;;;1.20;;
53040;SDS011;39326;42.650;23.248;2023-11-21T01:32:38;2.27;;;1.23;;
53040;SDS011;39326;42.650;23.248;2023-11-21T01:35:04;1.60;;;1.17;;
53040;SDS011;39326;42.650;23.248;2023-11-21T01:37:32;2.97;;;1.43;;
53040;SDS011;39326;42.650;23.248;2023-11-21T01:39:58;2.07;;;1.43;;
53040;SDS011;39326;42.650;23.248;2023-11-21T01:42:24;1.57;;;1.40;;
53040;SDS011;39326;42.650;23.248;2023-11-21T01:44:50;2.10;;;1.73;;
53040;SDS011;39326;42.650;23.248;2023-11-21T01:47:15;3.07;;;1.80;;
53040;SDS011;39326;42.650;23.248;2023-11-21T01:49:45;4.03;;;2.20;;
53040;SDS011;39326;42.650;23.248;2023-11-21T01:52:11;2.87;;;2.07;;
53040;SDS011;39326;42.650;23.248;2023-11-21T01:54:38;2.83;;;1.70;;
53040;SDS011;39326;42.650;23.248;2023-11-21T01:57:04;3.20;;;2.20;;
53040;SDS011;39326;42.650;23.248;2023-11-21T01:59:34;4.23;;;2.27;;
53040;SDS011;39326;42.650;23.248;2023-11-21T02:02:04;2.70;;;1.93;;
53040;SDS011;39326;42.650;23.248;2023-11-21T02:04:34;3.00;;;2.03;;
53040;SDS011;39326;42.650;23.248;2023-11-21T02:07:02;2.93;;;1.30;;
53040;SDS011;39326;42.650;23.248;2023-11-21T02:09:30;1.70;;;1.50;;
53040;SDS011;39326;42.650;23.248;2023-11-21T02:11:58;2.30;;;2.10;;
53040;SDS011;39326;42.650;23.248;2023-11-21T02:14:24;2.47;;;1.70;;
53040;SDS011;39326;42.650;23.248;2023-11-21T02:16:53;3.17;;;1.30;;
53040;SDS011;39326;42.650;23.248;2023-11-21T02:19:20;2.23;;;1.50;;
53040;SDS011;39326;42.650;23.248;2023-11-21T02:21:54;2.30;;;1.40;;
53040;SDS011;39326;42.650;23.248;2023-11-21T02:24:28;1.77;;;1.30;;
53040;SDS011;39326;42.650;23.248;2023-11-21T02:26:54;1.97;;;1.33;;
53040;SDS011;39326;42.650;23.248;2023-11-21T02:29:20;3.27;;;1.90;;
53040;SDS011;39326;42.650;23.248;2023-11-21T02:31:56;2.37;;;1.40;;
53040;SDS011;39326;42.650;23.248;2023-11-21T02:34:22;2.53;;;1.50;;
53040;SDS011;39326;42.650;23.248;2023-11-21T02:36:48;2.87;;;1.80;;
53040;SDS011;39326;42.650;23.248;2023-11-21T02:39:17;2.37;;;1.60;;
53040;SDS011;39326;42.650;23.248;2023-11-21T02:41:43;2.47;;;1.80;;
53040;SDS011;39326;42.650;23.248;2023-11-21T02:44:09;1.87;;;1.67;;
53040;SDS011;39326;42.650;23.248;2023-11-21T02:46:36;1.70;;;1.30;;
53040;SDS011;39326;42.650;23.248;2023-11-21T02:49:05;1.83;;;1.20;;
53040;SDS011;39326;42.650;23.248;2023-11-21T02:51:31;1.70;;;1.00;;
53040;SDS011;39326;42.650;23.248;2023-11-21T02:53:57;1.60;;;1.20;;
53040;SDS011;39326;42.650;23.248;2023-11-21T02:56:24;1.60;;;1.27;;
53040;SDS011;39326;42.650;23.248;2023-11-21T02:58:56;2.47;;;1.33;;
53040;SDS011;39326;42.650;23.248;2023-11-21T03:01:23;2.83;;;1.60;;
53040;SDS011;39326;42.650;23.248;2023-11-21T03:03:51;1.60;;;1.20;;
53040;SDS011;39326;42.650;23.248;2023-11-21T03:06:18;4.03;;;3.63;;
53040;SDS011;39326;42.650;23.248;2023-11-21T03:08:47;32.67;;;29.27;;
53040;SDS011;39326;42.650;23.248;2023-11-21T03:11:13;48.27;;;43.53;;
53040;SDS011;39326;42.650;23.248;2023-11-21T03:13:41;33.50;;;30.40;;
53040;SDS011;39326;42.650;23.248;2023-11-21T03:16:10;13.80;;;12.50;;
53040;SDS011;39326;42.650;23.248;2023-11-21T03:18:39;3.97;;;2.77;;
53040;SDS011;39326;42.650;23.248;2023-11-21T03:21:05;1.83;;;1.40;;
53040;SDS011;39326;42.650;23.248;2023-11-21T03:23:33;1.77;;;1.50;;
53040;SDS011;39326;42.650;23.248;2023-11-21T03:26:00;2.23;;;1.77;;
53040;SDS011;39326;42.650;23.248;2023-11-21T03:28:26;3.00;;;1.80;;
53040;SDS011;39326;42.650;23.248;2023-11-21T03:30:52;2.77;;;1.40;;
53040;SDS011;39326;42.650;23.248;2023-11-21T03:33:18;1.40;;;1.30;;
53040;SDS011;39326;42.650;23.248;2023-11-21T03:35:44;1.83;;;1.63;;
53040;SDS011;39326;42.650;23.248;2023-11-21T03:38:09;2.27;;;1.50;;
53040;SDS011;39326;42.650;23.248;2023-11-21T03:40:35;2.07;;;1.53;;
53040;SDS011;39326;42.650;23.248;2023-11-21T03:43:01;2.60;;;1.83;;
53040;SDS011;39326;42.650;23.248;2023-11-21T03:45:27;2.77;;;1.87;;
53040;SDS011;39326;42.650;23.248;2023-11-21T03:47:52;4.10;;;1.83;;
53040;SDS011;39326;42.650;23.248;2023-11-21T03:50:18;2.10;;;1.80;;
53040;SDS011;39326;42.650;23.248;2023-11-21T03:52:43;2.60;;;2.07;;
53040;SDS011;39326;42.650;23.248;2023-11-21T03:55:09;3.10;;;2.40;;
53040;SDS011;39326;42.650;23.248;2023-11-21T03:57:35;3.20;;;2.40;;
53040;SDS011;39326;42.650;23.248;2023-11-21T04:00:01;5.13;;;2.70;;
53040;SDS011;39326;42.650;23.248;2023-11-21T04:02:29;3.10;;;2.77;;
53040;SDS011;39326;42.650;23.248;2023-11-21T04:04:56;6.53;;;5.13;;
53040;SDS011;39326;42.650;23.248;2023-11-21T04:07:22;5.73;;;3.37;;
53040;SDS011;39326;42.650;23.248;2023-11-21T04:09:47;5.27;;;3.10;;
53040;SDS011;39326;42.650;23.248;2023-11-21T04:12:13;5.33;;;3.47;;
53040;SDS011;39326;42.650;23.248;2023-11-21T04:14:39;3.93;;;3.53;;
53040;SDS011;39326;42.650;23.248;2023-11-21T04:17:04;3.10;;;2.80;;
53040;SDS011;39326;42.650;23.248;2023-11-21T04:19:30;4.40;;;3.27;;
53040;SDS011;39326;42.650;23.248;2023-11-21T04:21:56;3.93;;;3.63;;
53040;SDS011;39326;42.650;23.248;2023-11-21T04:24:21;2.70;;;2.30;;
53040;SDS011;39326;42.650;23.248;2023-11-21T04:26:47;4.03;;;3.00;;
53040;SDS011;39326;42.650;23.248;2023-11-21T04:29:13;4.27;;;3.13;;
53040;SDS011;39326;42.650;23.248;2023-11-21T04:31:38;5.20;;;2.87;;
53040;SDS011;39326;42.650;23.248;2023-11-21T04:34:04;2.63;;;2.40;;
53040;SDS011;39326;42.650;23.248;2023-11-21T04:36:30;4.87;;;2.60;;
53040;SDS011;39326;42.650;23.248;2023-11-21T04:38:56;3.60;;;2.60;;
53040;SDS011;39326;42.650;23.248;2023-11-21T04:41:22;3.77;;;2.53;;
53040;SDS011;39326;42.650;23.248;2023-11-21T04:43:48;4.57;;;2.93;;
53040;SDS011;39326;42.650;23.248;2023-11-21T04:46:14;2.87;;;2.20;;
53040;SDS011;39326;42.650;23.248;2023-11-21T04:48:40;4.37;;;2.20;;
53040;SDS011;39326;42.650;23.248;2023-11-21T04:51:05;2.87;;;2.10;;
53040;SDS011;39326;42.650;23.248;2023-11-21T04:53:31;5.20;;;2.27;;
53040;SDS011;39326;42.650;23.248;2023-11-21T04:55:57;5.07;;;2.67;;
53040;SDS011;39326;42.650;23.248;2023-11-21T04:58:23;5.93;;;2.80;;
53040;SDS011;39326;42.650;23.248;2023-11-21T05:00:48;2.97;;;2.30;;
53040;SDS011;39326;42.650;23.248;2023-11-21T05:03:15;2.90;;;2.33;;
53040;SDS011;39326;42.650;23.248;2023-11-21T05:05:40;3.30;;;2.33;;
53040;SDS011;39326;42.650;23.248;2023-11-21T05:08:06;3.07;;;2.33;;
53040;SDS011;39326;42.650;23.248;2023-11-21T05:10:32;6.50;;;3.07;;
53040;SDS011;39326;42.650;23.248;2023-11-21T05:12:57;2.83;;;1.93;;
53040;SDS011;39326;42.650;23.248;2023-11-21T05:15:23;1.90;;;1.60;;
53040;SDS011;39326;42.650;23.248;2023-11-21T05:17:49;2.90;;;2.00;;
53040;SDS011;39326;42.650;23.248;2023-11-21T05:20:17;2.73;;;2.10;;
53040;SDS011;39326;42.650;23.248;2023-11-21T05:22:46;2.60;;;1.97;;
53040;SDS011;39326;42.650;23.248;2023-11-21T05:25:14;4.63;;;2.00;;
53040;SDS011;39326;42.650;23.248;2023-11-21T05:27:41;4.17;;;2.30;;
53040;SDS011;39326;42.650;23.248;2023-11-21T05:30:07;3.33;;;2.60;;
53040;SDS011;39326;42.650;23.248;2023-11-21T05:32:37;2.60;;;2.10;;
53040;SDS011;39326;42.650;23.248;2023-11-21T05:35:03;4.27;;;1.73;;
53040;SDS011;39326;42.650;23.248;2023-11-21T05:37:29;2.80;;;1.40;;
53040;SDS011;39326;42.650;23.248;2023-11-21T05:39:55;2.20;;;1.83;;
53040;SDS011;39326;42.650;23.248;2023-11-21T05:42:21;1.83;;;1.67;;
53040;SDS011;39326;42.650;23.248;2023-11-21T05:44:48;3.03;;;1.60;;
53040;SDS011;39326;42.650;23.248;2023-11-21T05:47:14;3.40;;;1.73;;
53040;SDS011;39326;42.650;23.248;2023-11-21T05:49:40;3.30;;;2.77;;
53040;SDS011;39326;42.650;23.248;2023-11-21T05:52:05;4.10;;;2.90;;
53040;SDS011;39326;42.650;23.248;2023-11-21T05:54:31;2.83;;;1.80;;
53040;SDS011;39326;42.650;23.248;2023-11-21T05:56:57;2.13;;;1.77;;
53040;SDS011;39326;42.650;23.248;2023-11-21T05:59:24;2.07;;;1.73;;
53040;SDS011;39326;42.650;23.248;2023-11-21T06:01:50;4.07;;;1.50;;
53040;SDS011;39326;42.650;23.248;2023-11-21T06:04:15;2.53;;;1.97;;
53040;SDS011;39326;42.650;23.248;2023-11-21T06:06:41;2.40;;;1.80;;
53040;SDS011;39326;42.650;23.248;2023-11-21T06:09:06;2.37;;;1.57;;
53040;SDS011;39326;42.650;23.248;2023-11-21T06:11:34;2.20;;;1.60;;
53040;SDS011;39326;42.650;23.248;2023-11-21T06:14:00;2.00;;;1.80;;
53040;SDS011;39326;42.650;23.248;2023-11-21T06:16:26;2.43;;;2.03;;
53040;SDS011;39326;42.650;23.248;2023-11-21T06:18:52;4.43;;;2.07;;
53040;SDS011;39326;42.650;23.248;2023-11-21T06:21:18;2.53;;;2.07;;
53040;SDS011;39326;42.650;23.248;2023-11-21T06:23:44;2.30;;;2.10;;
53040;SDS011;39326;42.650;23.248;2023-11-21T06:26:09;4.33;;;2.40;;
53040;SDS011;39326;42.650;23.248;2023-11-21T06:28:35;5.20;;;2.13;;
53040;SDS011;39326;42.650;23.248;2023-11-21T06:31:04;3.47;;;2.30;;
53040;SDS011;39326;42.650;23.248;2023-11-21T06:33:33;3.40;;;2.97;;
53040;SDS011;39326;42.650;23.248;2023-11-21T06:35:59;3.33;;;2.50;;
53040;SDS011;39326;42.650;23.248;2023-11-21T06:38:28;3.70;;;2.73;;
53040;SDS011;39326;42.650;23.248;2023-11-21T06:40:55;3.03;;;2.20;;
53040;SDS011;39326;42.650;23.248;2023-11-21T06:43:23;3.43;;;2.93;;
53040;SDS011;39326;42.650;23.248;2023-11-21T06:45:49;4.47;;;3.30;;
53040;SDS011;39326;42.650;23.248;2023-11-21T06:48:14;6.60;;;4.47;;
53040;SDS011;39326;42.650;23.248;2023-11-21T06:50:40;8.50;;;7.03;;
53040;SDS011;39326;42.650;23.248;2023-11-21T06:53:06;7.70;;;6.67;;
53040;SDS011;39326;42.650;23.248;2023-11-21T06:55:33;15.00;;;11.97;;
53040;SDS011;39326;42.650;23.248;2023-11-21T06:57:59;18.63;;;14.27;;
53040;SDS011;39326;42.650;23.248;2023-11-21T07:00:25;18.07;;;16.00;;
53040;SDS011;39326;42.650;23.248;2023-11-21T07:02:52;17.43;;;15.63;;
53040;SDS011;39326;42.650;23.248;2023-11-21T07:05:18;16.13;;;14.07;;
53040;SDS011;39326;42.650;23.248;2023-11-21T07:07:46;18.10;;;14.93;;
53040;SDS011;39326;42.650;23.248;2023-11-21T07:10:12;17.43;;;13.70;;
53040;SDS011;39326;42.650;23.248;2023-11-21T07:12:38;16.00;;;14.30;;
53040;SDS011;39326;42.650;23.248;2023-11-21T07:15:04;15.50;;;13.97;;
53040;SDS011;39326;42.650;23.248;2023-11-21T07:17:34;13.63;;;12.03;;
53040;SDS011;39326;42.650;23.248;2023-11-21T07:20:00;13.67;;;12.10;;
53040;SDS011;39326;42.650;23.248;2023-11-21T07:22:29;14.33;;;12.83;;
53040;SDS011;39326;42.650;23.248;2023-11-21T07:24:55;16.30;;;13.23;;
53040;SDS011;39326;42.650;23.248;2023-11-21T07:27:21;15.90;;;13.23;;
53040;SDS011;39326;42.650;23.248;2023-11-21T07:29:47;17.20;;;12.57;;
53040;SDS011;39326;42.650;23.248;2023-11-21T07:32:13;16.03;;;13.13;;
53040;SDS011;39326;42.650;23.248;2023-11-21T07:34:40;17.50;;;14.57;;
53040;SDS011;39326;42.650;23.248;2023-11-21T07:37:06;15.57;;;13.47;;
53040;SDS011;39326;42.650;23.248;2023-11-21T07:39:34;16.60;;;14.67;;
53040;SDS011;39326;42.650;23.248;2023-11-21T07:42:00;20.70;;;17.23;;
53040;SDS011;39326;42.650;23.248;2023-11-21T07:44:27;18.73;;;15.97;;
53040;SDS011;39326;42.650;23.248;2023-11-21T07:46:54;21.80;;;17.67;;
53040;SDS011;39326;42.650;23.248;2023-11-21T07:49:23;23.17;;;18.30;;
53040;SDS011;39326;42.650;23.248;2023-11-21T07:51:49;22.07;;;19.00;;
53040;SDS011;39326;42.650;23.248;2023-11-21T07:54:15;22.53;;;18.70;;
53040;SDS011;39326;42.650;23.248;2023-11-21T07:56:41;23.30;;;19.60;;
53040;SDS011;39326;42.650;23.248;2023-11-21T07:59:07;22.07;;;18.47;;
53040;SDS011;39326;42.650;23.248;2023-11-21T08:01:33;20.07;;;17.97;;
53040;SDS011;39326;42.650;23.248;2023-11-21T08:03:59;25.73;;;21.07;;
53040;SDS011;39326;42.650;23.248;2023-11-21T08:06:28;24.47;;;20.97;;
53040;SDS011;39326;42.650;23.248;2023-11-21T08:08:57;23.33;;;20.53;;
53040;SDS011;39326;42.650;23.248;2023-11-21T08:11:24;29.00;;;23.30;;
53040;SDS011;39326;42.650;23.248;2023-11-21T08:13:49;24.37;;;21.93;;
53040;SDS011;39326;42.650;23.248;2023-11-21T08:16:15;28.27;;;24.27;;
53040;SDS011;39326;42.650;23.248;2023-11-21T08:18:42;27.47;;;23.93;;
53040;SDS011;39326;42.650;23.248;2023-11-21T08:21:07;29.50;;;25.07;;
53040;SDS011;39326;42.650;23.248;2023-11-21T08:23:33;28.57;;;24.60;;
53040;SDS011;39326;42.650;23.248;2023-11-21T08:25:59;25.93;;;23.23;;
53040;SDS011;39326;42.650;23.248;2023-11-21T08:28:25;22.17;;;19.73;;
53040;SDS011;39326;42.650;23.248;2023-11-21T08:30:51;28.27;;;22.70;;
53040;SDS011;39326;42.650;23.248;2023-11-21T08:33:19;27.90;;;21.73;;
53040;SDS011;39326;42.650;23.248;2023-11-21T08:35:44;25.93;;;21.87;;
53040;SDS011;39326;42.650;23.248;2023-11-21T08:38:11;25.33;;;22.00;;
53040;SDS011;39326;42.650;23.248;2023-11-21T08:40:37;27.03;;;23.37;;
53040;SDS011;39326;42.650;23.248;2023-11-21T08:43:03;27.27;;;24.10;;
53040;SDS011;39326;42.650;23.248;2023-11-21T08:45:29;24.33;;;21.37;;
53040;SDS011;39326;42.650;23.248;2023-11-21T08:47:55;28.27;;;23.60;;
53040;SDS011;39326;42.650;23.248;2023-11-21T08:50:21;26.00;;;23.13;;
53040;SDS011;39326;42.650;23.248;2023-11-21T08:52:47;28.13;;;23.77;;
53040;SDS011;39326;42.650;23.248;2023-11-21T08:55:13;28.17;;;22.57;;
53040;SDS011;39326;42.650;23.248;2023-11-21T08:57:39;29.17;;;26.03;;
53040;SDS011;39326;42.650;23.248;2023-11-21T09:00:08;30.43;;;25.37;;
53040;SDS011;39326;42.650;23.248;2023-11-21T09:02:38;25.93;;;23.13;;
53040;SDS011;39326;42.650;23.248;2023-11-21T09:05:05;25.07;;;20.97;;
53040;SDS011;39326;42.650;23.248;2023-11-21T09:07:30;23.17;;;20.73;;
53040;SDS011;39326;42.650;23.248;2023-11-21T09:09:56;23.10;;;20.30;;
53040;SDS011;39326;42.650;23.248;2023-11-21T09:12:22;24.63;;;21.57;;
53040;SDS011;39326;42.650;23.248;2023-11-21T09:14:49;27.10;;;21.90;;
53040;SDS011;39326;42.650;23.248;2023-11-21T09:17:16;23.13;;;20.63;;
53040;SDS011;39326;42.650;23.248;2023-11-21T09:19:41;25.30;;;22.67;;
53040;SDS011;39326;42.650;23.248;2023-11-21T09:22:10;28.90;;;21.53;;
53040;SDS011;39326;42.650;23.248;2023-11-21T09:24:36;24.03;;;21.47;;
53040;SDS011;39326;42.650;23.248;2023-11-21T09:27:02;28.90;;;22.27;;
53040;SDS011;39326;42.650;23.248;2023-11-21T09:29:30;24.87;;;22.27;;
53040;SDS011;39326;42.650;23.248;2023-11-21T09:31:56;27.80;;;21.83;;
53040;SDS011;39326;42.650;23.248;2023-11-21T09:34:24;26.03;;;21.80;;
53040;SDS011;39326;42.650;23.248;2023-11-21T09:36:50;27.60;;;24.50;;
53040;SDS011;39326;42.650;23.248;2023-11-21T09:39:16;29.50;;;26.50;;
53040;SDS011;39326;42.650;23.248;2023-11-21T09:41:43;30.20;;;25.97;;
53040;SDS011;39326;42.650;23.248;2023-11-21T09:44:13;30.57;;;25.70;;
53040;SDS011;39326;42.650;23.248;2023-11-21T09:46:48;32.57;;;24.70;;
53040;SDS011;39326;42.650;23.248;2023-11-21T09:49:20;24.60;;;22.17;;
53040;SDS011;39326;42.650;23.248;2023-11-21T09:51:50;29.40;;;23.10;;
53040;SDS011;39326;42.650;23.248;2023-11-21T09:54:20;29.27;;;22.67;;
53040;SDS011;39326;42.650;23.248;2023-11-21T09:56:46;24.17;;;21.47;;
53040;SDS011;39326;42.650;23.248;2023-11-21T09:59:13;25.03;;;21.37;;
53040;SDS011;39326;42.650;23.248;2023-11-21T10:01:40;29.40;;;23.33;;
53040;SDS011;39326;42.650;23.248;2023-11-21T10:04:07;26.37;;;22.53;;
53040;SDS011;39326;42.650;23.248;2023-11-21T10:06:39;31.07;;;21.50;;
53040;SDS011;39326;42.650;23.248;2023-11-21T10:09:07;25.80;;;23.10;;
53040;SDS011;39326;42.650;23.248;2023-11-21T10:11:40;23.70;;;21.27;;
53040;SDS011;39326;42.650;23.248;2023-11-21T10:14:08;24.37;;;21.30;;
53040;SDS011;39326;42.650;23.248;2023-11-21T10:16:38;23.63;;;21.13;;
53040;SDS011;39326;42.650;23.248;2023-11-21T10:19:05;24.03;;;21.27;;
53040;SDS011;39326;42.650;23.248;2023-11-21T10:21:35;22.60;;;19.50;;
53040;SDS011;39326;42.650;23.248;2023-11-21T10:24:01;24.03;;;19.53;;
53040;SDS011;39326;42.650;23.248;2023-11-21T10:26:28;21.77;;;19.43;;
53040;SDS011;39326;42.650;23.248;2023-11-21T10:28:59;21.50;;;17.47;;
53040;SDS011;39326;42.650;23.248;2023-11-21T10:31:29;19.50;;;17.03;;
53040;SDS011;39326;42.650;23.248;2023-11-21T10:34:18;21.00;;;17.37;;
53040;SDS011;39326;42.650;23.248;2023-11-21T10:36:44;18.90;;;16.77;;
53040;SDS011;39326;42.650;23.248;2023-11-21T10:39:20;19.20;;;17.20;;
53040;SDS011;39326;42.650;23.248;2023-11-21T10:41:49;19.23;;;16.07;;
53040;SDS011;39326;42.650;23.248;2023-11-21T10:44:19;16.73;;;14.60;;
53040;SDS011;39326;42.650;23.248;2023-11-21T10:46:52;18.60;;;16.17;;
53040;SDS011;39326;42.650;23.248;2023-11-21T10:49:24;19.97;;;16.13;;
53040;SDS011;39326;42.650;23.248;2023-11-21T10:51:50;20.53;;;15.70;;
53040;SDS011;39326;42.650;23.248;2023-11-21T10:54:21;19.80;;;15.40;;
53040;SDS011;39326;42.650;23.248;2023-11-21T10:56:53;19.53;;;15.33;;
53040;SDS011;39326;42.650;23.248;2023-11-21T10:59:22;15.93;;;13.83;;
53040;SDS011;39326;42.650;23.248;2023-11-21T11:01:50;18.70;;;13.90;;
53040;SDS011;39326;42.650;23.248;2023-11-21T11:04:20;15.67;;;12.73;;
53040;SDS011;39326;42.650;23.248;2023-11-21T11:06:51;16.73;;;12.57;;
53040;SDS011;39326;42.650;23.248;2023-11-21T11:09:22;17.03;;;14.00;;
53040;SDS011;39326;42.650;23.248;2023-11-21T11:11:48;17.10;;;13.57;;
53040;SDS011;39326;42.650;23.248;2023-11-21T11:14:14;15.03;;;13.47;;
53040;SDS011;39326;42.650;23.248;2023-11-21T11:16:40;13.60;;;12.20;;
53040;SDS011;39326;42.650;23.248;2023-11-21T11:19:07;19.10;;;12.17;;
53040;SDS011;39326;42.650;23.248;2023-11-21T11:27:29;22.63;;;15.97;;
53040;SDS011;39326;42.650;23.248;2023-11-21T11:29:59;18.00;;;15.37;;
53040;SDS011;39326;42.650;23.248;2023-11-21T11:35:32;17.13;;;15.30;;
53040;SDS011;39326;42.650;23.248;2023-11-21T11:38:03;19.70;;;17.53;;
53040;SDS011;39326;42.650;23.248;2023-11-21T11:40:39;21.07;;;16.07;;
53040;SDS011;39326;42.650;23.248;2023-11-21T11:43:05;18.30;;;16.43;;
53040;SDS011;39326;42.650;23.248;2023-11-21T11:45:32;20.23;;;16.60;;
53040;SDS011;39326;42.650;23.248;2023-11-21T11:47:59;19.63;;;17.00;;
53040;SDS011;39326;42.650;23.248;2023-11-21T11:50:25;22.53;;;19.80;;
53040;SDS011;39326;42.650;23.248;2023-11-21T11:52:55;23.17;;;20.77;;
53040;SDS011;39326;42.650;23.248;2023-11-21T11:55:36;24.07;;;21.33;;
53040;SDS011;39326;42.650;23.248;2023-11-21T11:58:04;23.03;;;20.37;;
53040;SDS011;39326;42.650;23.248;2023-11-21T12:00:34;23.27;;;20.97;;
53040;SDS011;39326;42.650;23.248;2023-11-21T12:03:03;22.70;;;20.13;;
53040;SDS011;39326;42.650;23.248;2023-11-21T12:05:33;22.13;;;19.63;;
53040;SDS011;39326;42.650;23.248;2023-11-21T12:08:06;22.03;;;19.80;;
53040;SDS011;39326;42.650;23.248;2023-11-21T12:10:33;22.33;;;19.60;;
53040;SDS011;39326;42.650;23.248;2023-11-21T12:13:01;25.70;;;21.07;;
53040;SDS011;39326;42.650;23.248;2023-11-21T12:15:28;22.97;;;20.57;;
53040;SDS011;39326;42.650;23.248;2023-11-21T12:17:57;25.63;;;21.07;;
53040;SDS011;39326;42.650;23.248;2023-11-21T12:20:26;25.87;;;22.40;;
53040;SDS011;39326;42.650;23.248;2023-11-21T12:22:53;26.13;;;22.33;;
53040;SDS011;39326;42.650;23.248;2023-11-21T12:25:23;25.63;;;23.00;;
53040;SDS011;39326;42.650;23.248;2023-11-21T12:27:53;24.27;;;21.83;;
53040;SDS011;39326;42.650;23.248;2023-11-21T12:30:21;25.73;;;22.57;;
53040;SDS011;39326;42.650;23.248;2023-11-21T12:32:52;26.83;;;24.07;;
53040;SDS011;39326;42.650;23.248;2023-11-21T12:35:21;29.90;;;25.60;;
53040;SDS011;39326;42.650;23.248;2023-11-21T12:37:48;29.57;;;26.70;;
53040;SDS011;39326;42.650;23.248;2023-11-21T12:40:14;31.13;;;27.93;;
53040;SDS011;39326;42.650;23.248;2023-11-21T12:42:42;31.10;;;27.63;;
53040;SDS011;39326;42.650;23.248;2023-11-21T12:47:49;29.80;;;26.63;;
53040;SDS011;39326;42.650;23.248;2023-11-21T12:50:20;30.00;;;27.07;;
53040;SDS011;39326;42.650;23.248;2023-11-21T12:52:53;29.77;;;26.20;;
53040;SDS011;39326;42.650;23.248;2023-11-21T12:55:23;34.50;;;30.83;;
53040;SDS011;39326;42.650;23.248;2023-11-21T12:57:51;34.47;;;30.03;;
53040;SDS011;39326;42.650;23.248;2023-11-21T13:00:20;32.63;;;29.23;;
53040;SDS011;39326;42.650;23.248;2023-11-21T13:02:57;32.27;;;29.07;;
53040;SDS011;39326;42.650;23.248;2023-11-21T13:05:29;28.97;;;26.17;;
53040;SDS011;39326;42.650;23.248;2023-11-21T13:07:57;30.53;;;27.10;;
53040;SDS011;39326;42.650;23.248;2023-11-21T13:10:25;31.93;;;28.60;;
53040;SDS011;39326;42.650;23.248;2023-11-21T13:12:54;32.17;;;28.77;;
53040;SDS011;39326;42.650;23.248;2023-11-21T13:15:23;38.87;;;31.80;;
53040;SDS011;39326;42.650;23.248;2023-11-21T13:17:50;34.53;;;31.00;;
53040;SDS011;39326;42.650;23.248;2023-11-21T13:20:16;36.23;;;32.30;;
53040;SDS011;39326;42.650;23.248;2023-11-21T13:22:52;36.43;;;32.53;;
53040;SDS011;39326;42.650;23.248;2023-11-21T13:25:23;36.80;;;32.53;;
53040;SDS011;39326;42.650;23.248;2023-11-21T13:27:49;38.27;;;34.27;;
53040;SDS011;39326;42.650;23.248;2023-11-21T13:30:16;38.63;;;34.50;;
53040;SDS011;39326;42.650;23.248;2023-11-21T13:32:45;36.93;;;33.03;;
53040;SDS011;39326;42.650;23.248;2023-11-21T13:35:16;38.80;;;35.00;;
53040;SDS011;39326;42.650;23.248;2023-11-21T13:37:56;33.87;;;30.47;;
53040;SDS011;39326;42.650;23.248;2023-11-21T13:40:25;37.63;;;31.17;;
53040;SDS011;39326;42.650;23.248;2023-11-21T13:42:52;33.70;;;30.40;;
53040;SDS011;39326;42.650;23.248;2023-11-21T13:45:21;36.70;;;32.80;;
53040;SDS011;39326;42.650;23.248;2023-11-21T13:47:51;34.20;;;30.57;;
53040;SDS011;39326;42.650;23.248;2023-11-21T13:50:20;30.10;;;26.77;;
53040;SDS011;39326;42.650;23.248;2023-11-21T13:52:49;24.70;;;22.23;;
53040;SDS011;39326;42.650;23.248;2023-11-21T13:55:19;23.93;;;21.53;;
53040;SDS011;39326;42.650;23.248;2023-11-21T13:57:46;24.33;;;21.93;;
53040;SDS011;39326;42.650;23.248;2023-11-21T14:00:15;20.23;;;18.10;;
53040;SDS011;39326;42.650;23.248;2023-11-21T14:03:19;23.53;;;21.00;;
53040;SDS011;39326;42.650;23.248;2023-11-21T14:05:47;17.50;;;15.57;;
53040;SDS011;39326;42.650;23.248;2023-11-21T14:08:18;20.27;;;18.10;;
53040;SDS011;39326;42.650;23.248;2023-11-21T14:10:46;13.73;;;11.97;;
53040;SDS011;39326;42.650;23.248;2023-11-21T14:13:15;16.10;;;14.07;;
53040;SDS011;39326;42.650;23.248;2023-11-21T14:15:42;16.30;;;14.70;;
53040;SDS011;39326;42.650;23.248;2023-11-21T14:18:10;14.70;;;13.13;;
53040;SDS011;39326;42.650;23.248;2023-11-21T14:20:39;16.87;;;13.53;;
53040;SDS011;39326;42.650;23.248;2023-11-21T14:23:06;12.87;;;11.57;;
53040;SDS011;39326;42.650;23.248;2023-11-21T14:25:34;13.20;;;11.87;;
53040;SDS011;39326;42.650;23.248;2023-11-21T14:28:02;16.50;;;13.30;;
53040;SDS011;39326;42.650;23.248;2023-11-21T14:30:29;19.80;;;14.10;;
53040;SDS011;39326;42.650;23.248;2023-11-21T14:32:57;17.40;;;13.43;;
53040;SDS011;39326;42.650;23.248;2023-11-21T14:35:23;14.10;;;11.63;;